Terminal Aerodrome Forecast
Issued by NWS

Home | Current Version | Previous Version | Text Only | Print | Product List | Glossary On
Versions: 1 2 3 4 5 6 7 8 9 10 11 12 13 14
000
FTUS43 KICT 210900 AAA
TAFHUT
TAF AMD
KHUT 210905Z 2109/2206 02013G19KT P6SM SKC
     FM211400 02012KT P6SM SCT250
     FM220000 01007KT P6SM SKC=

USA.gov is the U.S. government's official web portal to all federal, state and local government web resources and services.